createdAt,value
2018-03-19T00:00:28.754Z,0.34
2018-03-19T00:03:01.234Z,0.27
2018-03-19T00:05:33.705Z,0.28
2018-03-19T00:08:06.260Z,0.09
2018-03-19T00:10:38.887Z,0.04
2018-03-19T00:13:11.435Z,-0.30
2018-03-19T00:15:43.955Z,-0.23
2018-03-19T00:18:16.505Z,-0.57
2018-03-19T00:20:48.981Z,-0.49
2018-03-19T00:23:21.473Z,-0.79
2018-03-19T00:25:53.946Z,-1.00
2018-03-19T00:28:26.448Z,-0.94
2018-03-19T00:30:58.917Z,-0.77
2018-03-19T00:33:31.410Z,-0.67
2018-03-19T00:36:03.877Z,-0.60
2018-03-19T00:38:36.838Z,-0.62
2018-03-19T00:41:09.703Z,-0.61
2018-03-19T00:43:42.269Z,-0.68
2018-03-19T00:46:14.888Z,-0.80
2018-03-19T00:48:47.426Z,-0.81
2018-03-19T00:51:19.885Z,-0.60
2018-03-19T00:53:52.386Z,-0.60
2018-03-19T00:56:24.854Z,-0.38
2018-03-19T00:58:57.382Z,-0.05
2018-03-19T01:01:29.854Z,-0.05
2018-03-19T01:04:02.359Z,-0.20
2018-03-19T01:06:34.882Z,-0.11
2018-03-19T01:09:07.647Z,-0.07
2018-03-19T01:11:40.408Z,-0.15
2018-03-19T01:14:12.964Z,-0.21
2018-03-19T01:16:45.473Z,-0.22
2018-03-19T01:19:17.993Z,-0.16
2018-03-19T01:21:50.467Z,-0.33
2018-03-19T01:24:22.961Z,-0.31
2018-03-19T01:26:55.430Z,-0.31
2018-03-19T01:29:27.927Z,-0.36
2018-03-19T01:32:00.402Z,-0.67
2018-03-19T01:34:32.915Z,-0.55
2018-03-19T01:37:05.462Z,-0.57
2018-03-19T01:39:38.197Z,-0.61
2018-03-19T01:42:10.706Z,-0.54
2018-03-19T01:44:43.228Z,-0.41
2018-03-19T01:47:15.764Z,-0.41
2018-03-19T01:49:48.282Z,-0.50
2018-03-19T01:55:24.655Z,-0.67
2018-03-19T01:57:57.153Z,-0.64
2018-03-19T02:00:29.668Z,-0.39
2018-03-19T02:03:02.170Z,-0.61
2018-03-19T02:05:34.692Z,-0.45
2018-03-19T02:08:07.229Z,-0.60
2018-03-19T02:10:39.826Z,-0.62
2018-03-19T02:13:12.364Z,-0.70
2018-03-19T02:15:45.449Z,-0.59
2018-03-19T02:18:17.974Z,-0.82
2018-03-19T02:20:50.467Z,-0.97
2018-03-19T02:23:22.983Z,-0.84
2018-03-19T02:25:55.491Z,-1.16
2018-03-19T02:28:28.000Z,-0.87
2018-03-19T02:31:00.504Z,-0.98
2018-03-19T02:33:33.030Z,-1.14
2018-03-19T02:36:05.522Z,-0.92
2018-03-19T02:38:38.042Z,-1.02
2018-03-19T02:41:10.848Z,-1.02
2018-03-19T02:43:43.403Z,-0.95
2018-03-19T02:46:15.941Z,-0.94
2018-03-19T02:48:48.692Z,-1.00
2018-03-19T02:51:21.283Z,-0.87
2018-03-19T02:53:53.807Z,-0.77
2018-03-19T02:56:26.300Z,-1.23
2018-03-19T02:58:58.821Z,-1.13
2018-03-19T03:01:31.322Z,-1.15
2018-03-19T03:04:03.838Z,-1.23
2018-03-19T03:06:36.338Z,-1.05
2018-03-19T03:09:08.872Z,-1.11
2018-03-19T03:11:41.387Z,-1.13
2018-03-19T03:14:13.934Z,-1.09
2018-03-19T03:16:46.475Z,-0.92
2018-03-19T03:19:19.073Z,-0.82
2018-03-19T03:21:51.600Z,-0.87
2018-03-19T03:24:24.122Z,-1.16
2018-03-19T03:26:56.626Z,-1.01
2018-03-19T03:29:29.151Z,-1.10
2018-03-19T03:32:01.647Z,-0.98
2018-03-19T03:34:34.171Z,-0.99
2018-03-19T03:37:06.670Z,-0.91
2018-03-19T03:39:39.240Z,-0.90
2018-03-19T03:42:11.857Z,-0.94
2018-03-19T03:44:44.408Z,-1.09
2018-03-19T03:47:17.035Z,-0.97
2018-03-19T03:49:49.731Z,-1.02
2018-03-19T03:52:22.226Z,-1.04
2018-03-19T03:54:54.746Z,-1.10
2018-03-19T03:57:27.241Z,-1.10
2018-03-19T03:59:59.758Z,-1.05
2018-03-19T04:02:32.252Z,-1.10
2018-03-19T04:05:04.769Z,-1.20
2018-03-19T04:07:37.264Z,-1.27
2018-03-19T04:10:09.825Z,-1.19
2018-03-19T04:12:42.547Z,-1.27
2018-03-19T04:15:15.124Z,-1.26
2018-03-19T04:17:47.629Z,-1.16
2018-03-19T04:20:20.311Z,-1.22
2018-03-19T04:22:52.816Z,-1.23
2018-03-19T04:25:25.335Z,-1.29
2018-03-19T04:27:57.834Z,-1.39
2018-03-19T04:30:30.362Z,-1.36
2018-03-19T04:33:02.862Z,-1.40
2018-03-19T04:35:35.399Z,-1.43
2018-03-19T04:38:07.897Z,-1.45
2018-03-19T04:40:40.485Z,-1.56
2018-03-19T04:43:13.040Z,-1.61
2018-03-19T04:45:45.849Z,-1.70
2018-03-19T04:48:18.434Z,-1.66
2018-03-19T04:50:51.122Z,-1.59
2018-03-19T04:53:23.621Z,-1.60
2018-03-19T04:55:56.140Z,-1.65
2018-03-19T04:58:28.650Z,-1.63
2018-03-19T05:01:01.171Z,-1.73
2018-03-19T05:03:33.674Z,-1.61
2018-03-19T05:06:06.194Z,-1.62
2018-03-19T05:08:38.704Z,-1.60
2018-03-19T05:11:11.271Z,-1.59
2018-03-19T05:13:43.862Z,-1.56
2018-03-19T05:16:16.421Z,-1.58
2018-03-19T05:18:48.995Z,-1.60
2018-03-19T05:21:21.536Z,-1.62
2018-03-19T05:23:54.029Z,-1.62
2018-03-19T05:26:26.550Z,-1.58
2018-03-19T05:28:59.046Z,-1.71
2018-03-19T05:31:31.558Z,-1.67
2018-03-19T05:34:04.054Z,-1.70
2018-03-19T05:36:36.576Z,-1.63
2018-03-19T05:39:09.060Z,-1.59
2018-03-19T05:41:41.569Z,-1.55
2018-03-19T05:44:14.108Z,-1.48
2018-03-19T05:46:46.614Z,-1.50
2018-03-19T05:49:19.142Z,-1.48
2018-03-19T05:51:51.640Z,-1.49
2018-03-19T05:54:24.161Z,-1.49
2018-03-19T05:56:56.660Z,-1.51
2018-03-19T05:59:29.174Z,-1.48
2018-03-19T06:02:01.674Z,-1.36
2018-03-19T06:04:34.191Z,-1.28
2018-03-19T06:07:06.684Z,-1.25
2018-03-19T06:09:39.222Z,-1.22
2018-03-19T06:12:11.735Z,-1.17
2018-03-19T06:14:44.260Z,-1.17
2018-03-19T06:17:16.770Z,-1.07
2018-03-19T06:19:49.289Z,-1.08
2018-03-19T06:22:21.878Z,-1.32
2018-03-19T06:24:54.343Z,-1.22
2018-03-19T06:27:26.839Z,-0.93
2018-03-19T06:29:59.358Z,-1.09
2018-03-19T06:32:31.847Z,-1.23
2018-03-19T06:35:04.360Z,-0.88
2018-03-19T06:37:36.863Z,-1.18
2018-03-19T06:42:48.153Z,-0.78
2018-03-19T06:45:20.680Z,-1.16
2018-03-19T06:47:53.182Z,-0.57
2018-03-19T06:50:25.695Z,-0.35
2018-03-19T06:52:58.187Z,-0.24
2018-03-19T06:55:30.704Z,-0.12
2018-03-19T06:58:03.215Z,0.19
2018-03-19T07:00:35.744Z,0.48
2018-03-19T07:03:08.246Z,0.06
2018-03-19T07:05:40.857Z,-0.05
2018-03-19T07:08:13.346Z,0.41
2018-03-19T07:10:45.864Z,0.25
2018-03-19T07:13:18.447Z,-0.30
2018-03-19T07:15:51.096Z,-0.44
2018-03-19T07:18:23.603Z,0.31
2018-03-19T07:20:56.123Z,0.74
2018-03-19T07:23:28.618Z,0.47
2018-03-19T07:26:01.140Z,0.64
2018-03-19T07:28:33.637Z,0.82
2018-03-19T07:31:06.159Z,0.29
2018-03-19T07:33:38.673Z,0.73
2018-03-19T07:36:11.219Z,0.74
2018-03-19T07:38:43.731Z,0.89
2018-03-19T07:41:16.274Z,0.74
2018-03-19T07:43:48.779Z,1.48
2018-03-19T07:46:21.334Z,1.57
2018-03-19T07:48:53.861Z,1.11
2018-03-19T07:51:26.392Z,1.38
2018-03-19T07:53:58.913Z,1.11
2018-03-19T07:56:31.548Z,0.80
2018-03-19T07:59:04.114Z,1.47
2018-03-19T08:01:36.639Z,1.83
2018-03-19T08:04:11.232Z,2.34
2018-03-19T08:06:43.812Z,1.90
2018-03-19T08:09:16.329Z,1.97
2018-03-19T08:11:48.884Z,1.98
2018-03-19T08:14:21.404Z,1.84
2018-03-19T08:16:53.934Z,2.12
2018-03-19T08:19:26.454Z,2.64
2018-03-19T08:21:58.988Z,2.65
2018-03-19T08:24:31.520Z,2.70
2018-03-19T08:27:07.519Z,2.08
2018-03-19T08:29:40.058Z,1.99
2018-03-19T08:32:12.627Z,1.99
2018-03-19T08:34:45.155Z,2.67
2018-03-19T08:37:17.719Z,3.02
2018-03-19T08:39:50.275Z,2.87
2018-03-19T08:42:22.797Z,2.34
2018-03-19T08:44:55.331Z,2.33
2018-03-19T08:47:27.935Z,2.39
2018-03-19T08:50:00.515Z,2.62
2018-03-19T08:52:33.054Z,2.90
2018-03-19T08:55:05.573Z,1.43
2018-03-19T08:57:38.124Z,2.38
2018-03-19T09:00:10.753Z,2.86
2018-03-19T09:02:43.315Z,2.40
2018-03-19T09:05:15.898Z,2.65
2018-03-19T09:07:48.463Z,2.82
2018-03-19T09:10:20.989Z,3.52
2018-03-19T09:12:53.575Z,3.86
2018-03-19T09:15:26.239Z,3.85
2018-03-19T09:17:58.842Z,2.39
2018-03-19T09:20:32.206Z,3.19
2018-03-19T09:23:04.745Z,3.81
2018-03-19T09:25:37.354Z,3.77
2018-03-19T09:28:09.892Z,4.08
2018-03-19T09:30:42.498Z,3.97
2018-03-19T09:33:15.028Z,4.26
2018-03-19T09:35:47.601Z,3.74
2018-03-19T09:38:20.248Z,3.52
2018-03-19T09:40:52.811Z,3.77
2018-03-19T09:43:25.509Z,4.11
2018-03-19T09:45:59.156Z,4.65
2018-03-19T09:48:31.767Z,4.41
2018-03-19T09:51:04.339Z,4.28
2018-03-19T09:53:36.929Z,4.39
2018-03-19T09:56:09.523Z,3.78
2018-03-19T09:58:42.109Z,3.69
2018-03-19T10:01:14.693Z,4.01
2018-03-19T10:03:47.243Z,4.49
2018-03-19T10:06:19.880Z,4.50
2018-03-19T10:08:52.500Z,4.50
2018-03-19T10:11:25.082Z,5.28
2018-03-19T10:13:57.619Z,5.60
2018-03-19T10:19:09.880Z,5.33
2018-03-19T10:21:42.510Z,4.84
2018-03-19T10:24:15.060Z,4.73
2018-03-19T10:26:47.605Z,5.03
2018-03-19T10:29:20.176Z,5.18
2018-03-19T10:31:52.760Z,5.02
2018-03-19T10:34:25.314Z,4.92
2018-03-19T10:36:57.907Z,5.41
2018-03-19T10:39:30.517Z,5.52
2018-03-19T10:42:03.065Z,5.49
2018-03-19T10:44:35.579Z,6.16
2018-03-19T10:47:08.164Z,4.79
2018-03-19T10:49:40.783Z,5.83
2018-03-19T10:52:13.408Z,5.43
2018-03-19T10:54:45.977Z,5.94
2018-03-19T10:57:18.552Z,5.88
2018-03-19T10:59:51.125Z,6.17
2018-03-19T11:02:28.583Z,5.86
2018-03-19T11:05:06.650Z,5.67
2018-03-19T11:07:50.058Z,5.62
2018-03-19T11:10:22.620Z,5.96
2018-03-19T11:12:55.260Z,5.61
2018-03-19T11:15:27.856Z,5.71
2018-03-19T11:18:00.423Z,6.16
2018-03-19T11:20:33.012Z,6.06
2018-03-19T11:23:05.613Z,5.46
2018-03-19T11:25:38.231Z,5.75
2018-03-19T11:28:10.841Z,5.38
2018-03-19T11:30:43.377Z,6.00
2018-03-19T11:33:15.979Z,6.54
2018-03-19T11:35:48.540Z,5.63
2018-03-19T11:38:21.080Z,5.46
2018-03-19T11:40:53.642Z,5.87
2018-03-19T11:43:26.226Z,6.43
2018-03-19T11:45:58.749Z,6.85
2018-03-19T11:48:31.301Z,6.32
2018-03-19T11:51:03.890Z,6.50
2018-03-19T11:53:36.441Z,6.76
2018-03-19T11:56:09.083Z,7.02
2018-03-19T11:58:41.685Z,7.27
2018-03-19T12:01:14.292Z,6.75
2018-03-19T12:03:46.817Z,7.21
2018-03-19T12:06:19.363Z,7.58
2018-03-19T12:08:51.952Z,8.00
2018-03-19T12:11:24.501Z,8.06
2018-03-19T12:13:57.732Z,8.07
2018-03-19T12:16:30.296Z,7.84
2018-03-19T12:19:02.812Z,7.60
2018-03-19T12:21:35.351Z,7.78
2018-03-19T12:24:07.871Z,8.09
2018-03-19T12:26:40.504Z,8.33
2018-03-19T12:29:13.043Z,8.90
2018-03-19T12:31:45.686Z,9.02
2018-03-19T12:34:18.194Z,7.82
2018-03-19T12:36:50.735Z,7.64
2018-03-19T12:39:23.276Z,7.71
2018-03-19T12:41:55.834Z,7.76
2018-03-19T12:44:28.386Z,7.66
2018-03-19T12:47:00.948Z,7.33
2018-03-19T12:49:33.438Z,7.54
2018-03-19T12:52:05.949Z,7.57
2018-03-19T12:54:38.828Z,7.02
2018-03-19T12:57:11.791Z,7.48
2018-03-19T12:59:44.307Z,8.44
2018-03-19T13:02:16.855Z,8.72
2018-03-19T13:04:49.360Z,8.32
2018-03-19T13:07:21.970Z,7.42
2018-03-19T13:09:54.477Z,7.60
2018-03-19T13:12:26.993Z,7.47
2018-03-19T13:14:59.489Z,7.58
2018-03-19T13:17:32.020Z,7.74
2018-03-19T13:20:04.524Z,7.70
2018-03-19T13:22:37.084Z,7.93
2018-03-19T13:25:10.031Z,7.82
2018-03-19T13:27:42.673Z,7.44
2018-03-19T13:30:15.201Z,6.97
2018-03-19T13:32:47.740Z,7.29
2018-03-19T13:35:20.241Z,7.68
2018-03-19T13:37:52.873Z,7.49
2018-03-19T13:40:25.403Z,7.70
2018-03-19T13:42:58.009Z,8.07
2018-03-19T13:45:30.510Z,8.27
2018-03-19T13:48:03.019Z,8.30
2018-03-19T13:50:35.512Z,8.13
2018-03-19T13:53:08.024Z,7.09
2018-03-19T13:55:41.982Z,7.87
2018-03-19T13:58:14.535Z,8.21
2018-03-19T14:00:47.039Z,8.35
2018-03-19T14:03:19.630Z,7.97
2018-03-19T14:05:52.190Z,7.27
2018-03-19T14:08:24.719Z,7.74
2018-03-19T14:10:57.229Z,7.91
2018-03-19T14:13:29.818Z,7.95
2018-03-19T14:16:02.277Z,8.03
2018-03-19T14:18:34.807Z,7.77
2018-03-19T14:21:07.311Z,7.77
2018-03-19T14:23:41.534Z,7.88
2018-03-19T14:26:14.043Z,8.00
2018-03-19T14:28:46.616Z,8.12
2018-03-19T14:31:19.167Z,7.91
2018-03-19T14:33:51.713Z,7.70
2018-03-19T14:36:24.239Z,7.71
2018-03-19T14:38:56.787Z,7.83
2018-03-19T14:41:29.314Z,7.92
2018-03-19T14:46:40.978Z,8.00
2018-03-19T14:49:13.546Z,8.23
2018-03-19T14:51:46.056Z,8.15
2018-03-19T14:54:18.620Z,8.08
2018-03-19T14:56:51.129Z,8.01
2018-03-19T14:59:23.672Z,7.78
2018-03-19T15:01:56.191Z,7.66
2018-03-19T15:04:28.732Z,7.51
2018-03-19T15:07:01.235Z,7.48
2018-03-19T15:09:33.756Z,7.61
2018-03-19T15:12:06.254Z,7.29
2018-03-19T15:14:38.884Z,7.12
2018-03-19T15:17:12.260Z,7.41
2018-03-19T15:19:45.290Z,7.39
2018-03-19T15:22:17.785Z,7.46
2018-03-19T15:24:50.303Z,7.56
2018-03-19T15:27:22.809Z,7.42
2018-03-19T15:29:55.340Z,7.48
2018-03-19T15:32:27.864Z,7.53
2018-03-19T15:35:00.357Z,7.56
2018-03-19T15:37:32.865Z,7.77
2018-03-19T15:40:11.293Z,7.74
2018-03-19T15:42:43.819Z,7.82
2018-03-19T15:45:16.342Z,7.70
2018-03-19T15:47:48.905Z,7.66
2018-03-19T15:50:21.432Z,7.46
2018-03-19T15:52:53.972Z,7.47
2018-03-19T15:55:26.494Z,7.20
2018-03-19T15:57:59.028Z,7.12
2018-03-19T16:00:31.544Z,7.18
2018-03-19T16:03:04.091Z,7.25
2018-03-19T16:05:36.596Z,7.22
2018-03-19T16:08:12.395Z,7.22
2018-03-19T16:10:44.907Z,6.75
2018-03-19T16:13:17.517Z,6.90
2018-03-19T16:15:50.012Z,6.97
2018-03-19T16:18:22.525Z,6.86
2018-03-19T16:20:55.126Z,6.72
2018-03-19T16:23:27.646Z,6.92
2018-03-19T16:26:00.186Z,6.91
2018-03-19T16:28:32.720Z,6.91
2018-03-19T16:31:05.222Z,6.81
2018-03-19T16:33:37.744Z,6.80
2018-03-19T16:36:11.447Z,6.92
2018-03-19T16:38:43.965Z,6.94
2018-03-19T16:41:16.471Z,6.89
2018-03-19T16:43:49.006Z,6.83
2018-03-19T16:46:21.546Z,6.75
2018-03-19T16:48:54.061Z,6.59
2018-03-19T16:51:26.588Z,6.46
2018-03-19T16:53:59.332Z,6.53
2018-03-19T16:56:31.887Z,6.36
2018-03-19T16:59:04.406Z,6.41
2018-03-19T17:01:36.917Z,6.38
2018-03-19T17:04:09.992Z,6.36
2018-03-19T17:06:42.508Z,6.25
2018-03-19T17:09:15.064Z,6.30
2018-03-19T17:11:47.619Z,6.20
2018-03-19T17:14:20.175Z,6.06
2018-03-19T17:16:52.706Z,5.87
2018-03-19T17:19:25.259Z,5.67
2018-03-19T17:21:57.787Z,5.51
2018-03-19T17:24:30.351Z,5.29
2018-03-19T17:27:02.897Z,4.95
2018-03-19T17:29:35.450Z,4.74
2018-03-19T17:32:08.001Z,4.55
2018-03-19T17:34:40.660Z,4.37
2018-03-19T17:37:13.216Z,4.09
2018-03-19T17:39:45.774Z,4.13
2018-03-19T17:42:18.318Z,3.94
2018-03-19T17:44:50.878Z,3.79
2018-03-19T17:47:23.415Z,3.73
2018-03-19T17:49:55.981Z,3.71
2018-03-19T17:52:28.519Z,3.66
2018-03-19T17:55:01.144Z,3.63
2018-03-19T17:57:33.679Z,3.58
2018-03-19T18:00:06.784Z,3.51
2018-03-19T18:02:39.354Z,3.43
2018-03-19T18:05:11.902Z,3.35
2018-03-19T18:07:44.454Z,3.33
2018-03-19T18:10:17.020Z,3.26
2018-03-19T18:12:49.555Z,3.13
2018-03-19T18:15:22.097Z,3.12
2018-03-19T18:17:54.606Z,3.09
2018-03-19T18:20:27.147Z,3.03
2018-03-19T18:22:59.662Z,2.92
2018-03-19T18:25:32.227Z,2.81
2018-03-19T18:28:04.754Z,2.78
2018-03-19T18:30:37.286Z,2.68
2018-03-19T18:33:10.044Z,2.66
2018-03-19T18:35:42.587Z,2.64
2018-03-19T18:38:15.112Z,2.63
2018-03-19T18:40:47.655Z,2.56
2018-03-19T18:43:20.175Z,2.45
2018-03-19T18:45:52.734Z,2.38
2018-03-19T18:48:25.280Z,2.34
2018-03-19T18:50:57.811Z,2.48
2018-03-19T18:53:30.360Z,2.58
2018-03-19T18:56:02.931Z,2.58
2018-03-19T18:58:35.426Z,2.54
2018-03-19T19:01:07.944Z,2.48
2018-03-19T19:03:40.520Z,2.44
2018-03-19T19:06:13.037Z,2.39
2018-03-19T19:08:45.582Z,2.40
2018-03-19T19:11:18.601Z,2.38
2018-03-19T19:13:51.172Z,2.34
2018-03-19T19:16:23.690Z,2.33
2018-03-19T19:18:56.232Z,2.27
2018-03-19T19:21:28.779Z,2.24
2018-03-19T19:24:01.345Z,2.22
2018-03-19T19:26:33.883Z,2.18
2018-03-19T19:29:06.376Z,2.15
2018-03-19T19:31:39.604Z,2.14
2018-03-19T19:34:12.184Z,2.08
2018-03-19T19:36:44.716Z,2.11
2018-03-19T19:39:18.120Z,2.09
2018-03-19T19:41:50.638Z,2.04
2018-03-19T19:44:23.169Z,2.01
2018-03-19T19:46:55.658Z,1.96
2018-03-19T19:49:28.213Z,1.89
2018-03-19T19:52:00.713Z,1.88
2018-03-19T19:54:33.238Z,1.79
2018-03-19T19:57:05.741Z,1.74
2018-03-19T19:59:38.277Z,1.72
2018-03-19T20:02:11.503Z,1.57
2018-03-19T20:04:44.204Z,1.60
2018-03-19T20:07:16.830Z,1.57
2018-03-19T20:09:49.520Z,1.50
2018-03-19T20:12:22.102Z,1.47
2018-03-19T20:14:54.660Z,1.42
2018-03-19T20:17:27.229Z,1.36
2018-03-19T20:20:00.475Z,1.34
2018-03-19T20:22:33.079Z,1.25
2018-03-19T20:25:05.646Z,1.13
2018-03-19T20:27:38.422Z,1.17
2018-03-19T20:30:11.462Z,1.16
2018-03-19T20:32:43.991Z,1.12
2018-03-19T20:35:17.016Z,1.02
2018-03-19T20:37:49.707Z,1.14
2018-03-19T20:40:22.510Z,0.86
2018-03-19T20:42:55.067Z,1.01
2018-03-19T20:45:27.693Z,1.05
2018-03-19T20:48:00.199Z,0.83
2018-03-19T20:50:43.316Z,0.99
2018-03-19T20:53:15.847Z,0.70
2018-03-19T20:55:48.874Z,0.50
2018-03-19T20:58:21.763Z,0.77
2018-03-19T21:00:54.827Z,0.67
2018-03-19T21:03:27.402Z,0.78
2018-03-19T21:06:00.032Z,0.90
2018-03-19T21:08:32.518Z,1.00
2018-03-19T21:11:05.312Z,1.00
2018-03-19T21:13:38.142Z,0.99
2018-03-19T21:16:13.744Z,0.96
2018-03-19T21:18:46.243Z,0.87
2018-03-19T21:21:18.768Z,0.84
2018-03-19T21:23:51.785Z,0.56
2018-03-19T21:26:24.311Z,0.55
2018-03-19T21:28:56.801Z,0.24
2018-03-19T21:31:29.311Z,0.23
2018-03-19T21:34:01.807Z,0.12
2018-03-19T21:36:34.602Z,0.21
2018-03-19T21:39:07.142Z,0.31
2018-03-19T21:41:39.741Z,0.02
2018-03-19T21:44:12.855Z,0.06
2018-03-19T21:46:45.386Z,0.04
2018-03-19T21:49:17.901Z,-0.22
2018-03-19T21:51:50.435Z,-0.34
2018-03-19T21:54:22.951Z,-0.72
2018-03-19T21:56:55.475Z,-0.52
2018-03-19T21:59:27.984Z,-0.38
2018-03-19T22:02:00.545Z,-0.32
2018-03-19T22:04:33.065Z,-0.63
2018-03-19T22:07:05.567Z,-0.58
2018-03-19T22:09:38.081Z,-0.55
2018-03-19T22:12:10.996Z,-0.64
2018-03-19T22:14:43.558Z,-0.40
2018-03-19T22:17:16.095Z,-0.22
2018-03-19T22:19:48.623Z,-0.17
2018-03-19T22:22:21.149Z,-0.10
2018-03-19T22:24:53.661Z,-0.04
2018-03-19T22:27:26.167Z,-0.37
2018-03-19T22:29:58.684Z,-0.61
2018-03-19T22:32:31.196Z,-0.41
2018-03-19T22:35:03.720Z,-0.23
2018-03-19T22:37:36.223Z,-0.16
2018-03-19T22:40:08.982Z,-0.17
2018-03-19T22:42:41.550Z,-0.21
2018-03-19T22:45:14.090Z,-0.14
2018-03-19T22:47:46.601Z,-0.29
2018-03-19T22:50:19.136Z,-0.67
2018-03-19T22:52:51.667Z,-0.43
2018-03-19T22:55:24.202Z,-0.43
2018-03-19T22:57:56.699Z,-0.96
2018-03-19T23:00:29.246Z,-0.48
2018-03-19T23:03:01.754Z,-0.17
2018-03-19T23:05:34.279Z,0.06
2018-03-19T23:08:06.778Z,0.02
2018-03-19T23:10:40.026Z,0.21
2018-03-19T23:13:12.538Z,0.13
2018-03-19T23:15:45.094Z,0.31
2018-03-19T23:18:17.622Z,0.55
2018-03-19T23:20:50.163Z,0.70
2018-03-19T23:23:22.705Z,0.88
2018-03-19T23:25:55.261Z,0.68
2018-03-19T23:28:27.765Z,0.77
2018-03-19T23:31:00.301Z,0.76
2018-03-19T23:33:32.804Z,0.99
2018-03-19T23:36:05.328Z,0.89
2018-03-19T23:38:37.819Z,1.21
2018-03-19T23:41:16.181Z,1.10
2018-03-19T23:43:48.706Z,1.26
2018-03-19T23:46:21.238Z,1.39
2018-03-19T23:48:53.762Z,1.39
2018-03-19T23:51:26.308Z,1.34
2018-03-19T23:53:58.838Z,1.33
2018-03-19T23:56:31.375Z,1.45
2018-03-19T23:59:03.890Z,1.40
